Time;durP1;ratioP1;P1;durP2;ratioP2;P2;SDS_P1;SDS_P2;PMS_P1;PMS_P2;Temp;Humidity;BMP_temperature;BMP_pressure;BME280_temperature;BME280_humidity;BME280_pressure;Samples;Min_cycle;Max_cycle;Signal;HPM_P1;HPM_P2
2021/12/29 00:00:43;;;;;;;13.30;4.78;;;;;;;26.75;33.93;95323.53;5002660;28;20087;-30
2021/12/29 00:03:09;;;;;;;14.90;4.45;;;;;;;26.76;34.09;95346.22;5003697;28;20036;-31
2021/12/29 00:05:34;;;;;;;16.80;4.70;;;;;;;26.73;34.27;95349.94;5002174;28;22023;-31
2021/12/29 00:07:59;;;;;;;16.85;4.60;;;;;;;26.74;33.93;95348.16;5000972;28;20029;-29
2021/12/29 00:10:25;;;;;;;14.18;4.47;;;;;;;26.72;34.02;95350.91;5004798;28;20028;-30
2021/12/29 00:12:53;;;;;;;13.10;4.60;;;;;;;26.73;33.89;95351.72;5002354;28;20041;-30
2021/12/29 00:15:19;;;;;;;13.20;4.00;;;;;;;26.73;33.91;95356.97;5003254;28;20037;-26
2021/12/29 00:17:45;;;;;;;13.52;4.38;;;;;;;26.72;33.96;95360.56;5000228;28;20014;-28
2021/12/29 00:20:12;;;;;;;16.10;4.32;;;;;;;26.69;33.99;95366.91;4998268;28;20128;-28
2021/12/29 00:22:37;;;;;;;12.20;4.32;;;;;;;26.71;33.98;95372.88;5003443;28;20037;-28
2021/12/29 00:25:03;;;;;;;15.90;4.20;;;;;;;26.70;33.98;95375.63;5000350;28;20049;-29
2021/12/29 00:27:29;;;;;;;13.50;4.40;;;;;;;26.70;33.99;95375.63;5009699;28;20034;-30
2021/12/29 00:29:54;;;;;;;14.07;4.25;;;;;;;26.70;33.94;95378.25;5010413;28;20502;-30
2021/12/29 00:32:19;;;;;;;11.07;3.80;;;;;;;26.69;33.89;95377.41;5005158;28;20025;-27
2021/12/29 00:34:45;;;;;;;11.70;4.00;;;;;;;26.69;33.95;95382.66;5004046;28;20595;-28
2021/12/29 00:37:10;;;;;;;12.52;4.53;;;;;;;26.68;33.85;95388.03;5005000;28;20048;-31
2021/12/29 00:39:35;;;;;;;9.90;3.80;;;;;;;26.68;33.80;95401.19;5004135;28;20026;-30
2021/12/29 00:42:01;;;;;;;9.07;3.50;;;;;;;26.67;33.88;95405.63;5005884;28;21039;-31
2021/12/29 00:44:27;;;;;;;8.35;3.25;;;;;;;26.66;34.00;95414.44;5007467;28;20025;-33
2021/12/29 00:46:54;;;;;;;8.93;3.42;;;;;;;26.66;33.75;95408.38;5002474;28;20152;-29
2021/12/29 00:49:20;;;;;;;9.18;3.10;;;;;;;26.64;33.83;95420.78;5002693;28;20432;-30
2021/12/29 00:51:47;;;;;;;11.27;3.90;;;;;;;26.65;33.76;95427.72;4999892;28;20630;-27
2021/12/29 00:54:12;;;;;;;8.98;3.13;;;;;;;26.64;33.83;95428.66;4992378;28;20651;-35
2021/12/29 00:56:38;;;;;;;8.38;3.45;;;;;;;26.64;33.83;95426.03;5004363;28;20040;-35
2021/12/29 00:59:03;;;;;;;7.20;3.35;;;;;;;26.64;33.87;95436.53;5001867;28;20029;-26
2021/12/29 01:01:29;;;;;;;7.65;3.20;;;;;;;26.63;33.88;95437.50;5002753;28;20034;-31
2021/12/29 01:03:55;;;;;;;11.20;3.42;;;;;;;26.61;33.95;95448.97;5001919;28;20030;-29
2021/12/29 01:06:20;;;;;;;8.77;3.55;;;;;;;26.63;33.77;95453.25;5006466;28;20064;-31
2021/12/29 01:08:46;;;;;;;6.78;3.13;;;;;;;26.58;33.76;95454.44;5011569;28;20060;-40
2021/12/29 01:11:12;;;;;;;6.75;2.80;;;;;;;26.61;33.65;95463.88;5008241;28;20029;-28
2021/12/29 01:13:45;;;;;;;7.05;3.00;;;;;;;26.61;33.76;95469.13;5000691;28;20098;-28
2021/12/29 01:16:36;;;;;;;6.40;3.03;;;;;;;26.59;33.74;95474.50;5000069;28;20484;-28
2021/12/29 01:18:56;;;;;;;7.72;3.00;;;;;;;26.60;33.59;95477.97;5002366;28;20091;-30
2021/12/29 01:21:21;;;;;;;9.20;3.08;;;;;;;26.59;33.77;95487.66;5002586;28;20034;-30
2021/12/29 01:23:46;;;;;;;5.57;2.83;;;;;;;26.59;33.84;95485.03;5004850;28;20029;-31
2021/12/29 01:26:12;;;;;;;10.73;2.88;;;;;;;26.59;33.67;95486.81;5002230;28;20523;-27
2021/12/29 01:28:37;;;;;;;8.85;2.60;;;;;;;26.58;33.75;95491.22;5003018;28;20064;-32
2021/12/29 01:31:03;;;;;;;7.65;2.83;;;;;;;26.57;33.67;95494.81;5002706;28;20028;-32
2021/12/29 01:33:28;;;;;;;6.70;2.85;;;;;;;26.57;33.75;95497.44;5003465;28;20041;-32
2021/12/29 01:35:54;;;;;;;5.32;2.45;;;;;;;26.57;33.87;95494.81;5000714;28;20068;-32
2021/12/29 01:38:19;;;;;;;8.45;2.70;;;;;;;26.56;33.58;95487.91;5007654;28;20025;-31
2021/12/29 01:40:48;;;;;;;6.30;2.85;;;;;;;26.57;33.59;95500.06;5006633;28;20025;-32
2021/12/29 01:43:14;;;;;;;6.18;2.40;;;;;;;26.57;33.69;95500.06;5008196;28;20168;-33
2021/12/29 01:45:39;;;;;;;5.97;2.50;;;;;;;26.57;33.65;95499.22;5007129;28;20034;-31
2021/12/29 01:48:05;;;;;;;7.00;2.92;;;;;;;26.56;33.76;95500.19;5009323;28;21344;-32
2021/12/29 01:50:31;;;;;;;5.38;2.28;;;;;;;26.55;33.66;95523.00;5009005;28;20033;-34
2021/12/29 01:53:02;;;;;;;5.45;2.20;;;;;;;26.55;33.65;95516.91;5009880;28;20033;-35
2021/12/29 01:55:30;;;;;;;6.90;2.30;;;;;;;26.54;33.77;95537.09;5014383;28;20029;-33
2021/12/29 01:57:56;;;;;;;4.72;2.00;;;;;;;26.54;33.55;95546.78;5012720;28;20022;-33
2021/12/29 02:00:23;;;;;;;5.18;2.00;;;;;;;26.54;33.65;95550.22;5013887;28;20056;-40
2021/12/29 02:02:49;;;;;;;6.28;2.30;;;;;;;26.53;33.75;95559.06;5014289;28;20033;-36
2021/12/29 02:05:15;;;;;;;3.95;2.15;;;;;;;26.54;33.72;95562.53;5013270;28;20633;-40
2021/12/29 02:07:41;;;;;;;5.97;2.45;;;;;;;26.52;33.81;95565.28;5012638;28;20041;-35
2021/12/29 02:10:07;;;;;;;7.32;2.53;;;;;;;26.53;33.70;95566.94;5009154;28;20028;-33
2021/12/29 02:12:33;;;;;;;4.53;2.00;;;;;;;26.52;33.74;95573.16;5006973;28;20036;-32
2021/12/29 02:14:58;;;;;;;5.82;1.92;;;;;;;26.52;33.78;95573.16;5007691;28;20025;-31
2021/12/29 02:17:23;;;;;;;4.45;1.98;;;;;;;26.51;33.61;95568.88;5004593;28;20026;-31
2021/12/29 02:19:49;;;;;;;6.78;2.17;;;;;;;26.51;33.62;95584.63;5009295;28;20017;-28
2021/12/29 02:22:41;;;;;;;5.25;2.40;;;;;;;26.50;33.69;95580.31;5006695;28;20391;-34
2021/12/29 02:27:50;;;;;;;4.50;2.15;;;;;;;26.48;33.74;95587.47;5006251;28;20117;-26
2021/12/29 02:30:17;;;;;;;3.65;1.90;;;;;;;26.49;33.67;95602.28;5009302;28;20730;-32
2021/12/29 02:32:43;;;;;;;5.50;2.20;;;;;;;26.49;33.67;95615.41;5004118;28;20593;-31
2021/12/29 02:35:09;;;;;;;4.40;1.75;;;;;;;26.48;33.75;95606.69;5007900;28;20030;-30
2021/12/29 02:37:34;;;;;;;4.60;1.88;;;;;;;26.49;33.76;95628.56;5006844;28;20025;-31
2021/12/29 02:40:00;;;;;;;6.50;2.28;;;;;;;26.47;33.67;95625.22;5009351;28;20084;-31
2021/12/29 02:42:28;;;;;;;4.80;1.83;;;;;;;26.47;33.87;95625.22;5008726;28;20033;-28
2021/12/29 02:44:54;;;;;;;5.43;2.17;;;;;;;26.47;33.72;95619.97;5005692;28;20026;-30
2021/12/29 02:47:20;;;;;;;5.85;2.10;;;;;;;26.46;33.73;95634.03;5008809;28;20490;-29
2021/12/29 02:49:45;;;;;;;3.42;1.85;;;;;;;26.46;33.66;95628.78;5010174;28;20526;-31
2021/12/29 02:52:13;;;;;;;5.40;2.00;;;;;;;26.46;33.80;95639.28;5002106;28;20040;-28
2021/12/29 02:54:38;;;;;;;4.90;1.90;;;;;;;26.45;33.79;95642.84;5004131;28;20025;-28
2021/12/29 02:57:04;;;;;;;4.35;1.85;;;;;;;26.45;33.78;95645.50;5003882;28;20516;-32
2021/12/29 02:59:29;;;;;;;3.55;1.30;;;;;;;26.45;33.67;95643.72;5009282;28;20438;-31
2021/12/29 03:01:54;;;;;;;5.30;2.00;;;;;;;26.44;33.68;95651.69;5008139;28;20036;-28
2021/12/29 03:04:20;;;;;;;3.55;1.48;;;;;;;26.45;33.71;95650.75;5007800;28;20041;-32
2021/12/29 03:06:45;;;;;;;4.60;1.88;;;;;;;26.44;33.77;95646.44;5005864;28;20400;-28
2021/12/29 03:09:16;;;;;;;2.58;1.40;;;;;;;26.44;33.69;95662.22;5007089;28;20030;-30
2021/12/29 03:11:41;;;;;;;4.85;1.60;;;;;;;26.45;33.79;95663.88;5012432;28;20481;-27
2021/12/29 03:14:06;;;;;;;3.00;1.60;;;;;;;26.45;33.93;95663.88;5010267;28;20099;-29
2021/12/29 03:16:33;;;;;;;6.07;1.67;;;;;;;26.44;33.76;95667.47;5010702;28;20123;-29
2021/12/29 03:18:59;;;;;;;2.83;1.30;;;;;;;26.42;33.68;95675.44;5007746;28;20025;-31
2021/12/29 03:21:24;;;;;;;3.17;1.50;;;;;;;26.42;33.72;95679.84;5006460;28;20106;-26
2021/12/29 03:23:50;;;;;;;3.13;1.35;;;;;;;26.42;33.72;95675.44;5013612;28;20852;-30
2021/12/29 03:26:16;;;;;;;3.67;1.75;;;;;;;26.42;33.81;95674.59;5011341;28;20951;-31
2021/12/29 03:28:43;;;;;;;3.25;1.38;;;;;;;26.41;33.81;95670.31;5014190;28;20026;-28
2021/12/29 03:31:11;;;;;;;4.65;1.55;;;;;;;26.42;33.95;95674.59;5002960;28;20510;-27
2021/12/29 03:33:37;;;;;;;3.47;1.40;;;;;;;26.41;33.72;95667.69;5003513;28;20030;-32
2021/12/29 03:36:03;;;;;;;4.82;1.50;;;;;;;26.41;33.66;95683.44;5006871;28;20778;-31
2021/12/29 03:38:30;;;;;;;2.58;1.40;;;;;;;26.41;33.82;95665.06;5011509;28;20026;-32
2021/12/29 03:40:56;;;;;;;2.15;1.15;;;;;;;26.40;33.82;95658.13;5009447;28;20136;-28
2021/12/29 03:43:21;;;;;;;2.83;1.55;;;;;;;26.40;33.81;95660.75;5013910;28;20037;-34
2021/12/29 03:45:47;;;;;;;2.83;1.45;;;;;;;26.39;33.64;95646.78;5011481;28;20025;-28
2021/12/29 03:48:13;;;;;;;2.90;1.33;;;;;;;26.40;33.65;95639.75;5009902;28;20036;-29
2021/12/29 03:50:39;;;;;;;3.70;1.42;;;;;;;26.38;33.82;95647.72;5008952;28;20041;-29
2021/12/29 03:53:05;;;;;;;2.30;1.23;;;;;;;26.39;33.76;95651.22;5008565;28;20025;-32
2021/12/29 03:55:30;;;;;;;2.30;1.20;;;;;;;26.38;33.72;95662.66;4995388;28;20120;-29
2021/12/29 03:57:55;;;;;;;1.88;1.23;;;;;;;26.38;33.79;95670.56;5011760;28;20025;-35
2021/12/29 04:00:21;;;;;;;2.60;1.38;;;;;;;26.37;33.85;95660.97;5013339;28;20026;-31
2021/12/29 04:02:47;;;;;;;3.03;1.10;;;;;;;26.37;33.73;95667.06;5012967;28;20477;-28
2021/12/29 04:05:14;;;;;;;2.33;1.25;;;;;;;26.37;33.80;95660.97;4995383;28;20036;-31
2021/12/29 04:07:39;;;;;;;2.03;0.90;;;;;;;26.38;33.81;95673.19;5007875;28;20033;-27
2021/12/29 04:10:06;;;;;;;1.63;0.98;;;;;;;26.36;33.73;95683.78;5011824;28;20029;-31
2021/12/29 04:12:31;;;;;;;2.13;1.15;;;;;;;26.36;33.76;95689.03;5008938;28;20056;-33
2021/12/29 04:14:57;;;;;;;5.47;1.25;;;;;;;26.36;33.73;95696.94;5007029;28;20116;-28
2021/12/29 04:17:29;;;;;;;1.85;1.10;;;;;;;26.36;33.71;95691.66;5008954;28;20033;-33
2021/12/29 04:22:38;;;;;;;2.45;1.40;;;;;;;26.37;33.77;95697.75;5012661;28;19924;-31
2021/12/29 04:25:04;;;;;;;2.40;1.20;;;;;;;26.35;33.84;95698.69;5009459;28;20025;-31
2021/12/29 04:27:29;;;;;;;2.25;1.23;;;;;;;26.34;33.76;95704.91;5008314;28;20415;-29
2021/12/29 04:29:55;;;;;;;3.13;1.23;;;;;;;26.32;33.69;95706.78;5008068;28;20030;-30
2021/12/29 04:32:20;;;;;;;2.10;1.25;;;;;;;26.33;33.87;95712.91;5004389;28;20037;-30
2021/12/29 04:34:46;;;;;;;2.33;1.00;;;;;;;26.32;33.86;95711.22;5010759;28;20620;-28
2021/12/29 04:37:11;;;;;;;1.75;0.93;;;;;;;26.32;33.83;95724.34;5008144;28;20083;-29
2021/12/29 04:39:36;;;;;;;2.45;1.30;;;;;;;26.31;33.89;95718.25;5008531;28;20148;-31
2021/12/29 04:42:02;;;;;;;3.15;1.15;;;;;;;26.31;33.72;95710.38;5006774;28;20030;-34
2021/12/29 04:44:27;;;;;;;2.45;1.00;;;;;;;26.31;33.89;95725.31;4992336;28;20021;-29
2021/12/29 04:46:55;;;;;;;1.98;1.02;;;;;;;26.31;33.84;95730.56;5008735;28;20032;-30
2021/12/29 04:49:25;;;;;;;2.70;1.10;;;;;;;26.29;33.70;95722.78;5013012;28;20029;-27
2021/12/29 04:51:56;;;;;;;2.28;0.93;;;;;;;26.30;33.68;95724.47;5005797;28;20046;-31
2021/12/29 04:54:21;;;;;;;2.80;1.00;;;;;;;26.30;33.74;95729.72;5005931;28;20021;-32
2021/12/29 04:56:47;;;;;;;1.27;0.80;;;;;;;26.30;33.80;95737.59;5003957;28;20026;-33
2021/12/29 04:59:14;;;;;;;1.38;0.82;;;;;;;26.31;33.83;95733.19;5007773;28;20029;-31
2021/12/29 05:01:40;;;;;;;1.98;0.80;;;;;;;26.29;33.73;95735.94;5009211;28;20034;-27
2021/12/29 05:04:05;;;;;;;3.05;0.90;;;;;;;26.29;33.76;95742.94;5010715;28;20044;-29
2021/12/29 05:09:15;;;;;;;1.20;0.73;;;;;;;26.28;33.84;95757.03;5011611;28;20088;-34
2021/12/29 05:11:40;;;;;;;1.88;0.82;;;;;;;26.28;33.83;95752.59;5006708;28;20168;-28
2021/12/29 05:14:06;;;;;;;1.25;0.70;;;;;;;26.29;33.79;95763.97;5003841;28;20492;-25
2021/12/29 05:16:31;;;;;;;1.58;0.77;;;;;;;26.28;33.92;95765.75;5006660;28;20032;-29
2021/12/29 05:18:57;;;;;;;1.42;0.80;;;;;;;26.27;33.92;95771.94;5010501;28;20038;-30
2021/12/29 05:21:22;;;;;;;2.13;0.90;;;;;;;26.28;33.86;95780.69;5009568;28;20021;-29
2021/12/29 05:23:48;;;;;;;2.25;0.90;;;;;;;26.21;33.84;95777.63;5010723;28;20025;-30
2021/12/29 05:26:13;;;;;;;1.10;0.60;;;;;;;26.27;33.90;95790.34;5006392;28;20565;-29
2021/12/29 05:28:39;;;;;;;3.10;0.68;;;;;;;26.26;33.95;95790.44;4975288;28;20029;-26
2021/12/29 05:31:04;;;;;;;2.08;0.80;;;;;;;26.26;33.99;95775.53;5004452;28;20079;-33
2021/12/29 05:33:29;;;;;;;1.92;0.70;;;;;;;26.26;33.95;95780.78;5009747;28;20029;-29
2021/12/29 05:35:55;;;;;;;3.65;0.88;;;;;;;26.25;33.93;95789.59;5009999;28;20017;-27
2021/12/29 05:38:20;;;;;;;2.00;0.90;;;;;;;26.26;33.94;95795.69;5009586;28;20034;-30
2021/12/29 05:40:48;;;;;;;2.08;1.05;;;;;;;26.26;33.77;95795.69;5007995;28;20443;-30
2021/12/29 05:43:13;;;;;;;1.88;0.80;;;;;;;26.26;33.75;95790.44;5007959;28;20087;-32
2021/12/29 05:45:39;;;;;;;1.65;0.77;;;;;;;26.24;33.78;95790.53;5006611;28;20029;-31
2021/12/29 05:48:04;;;;;;;1.70;0.70;;;;;;;26.22;33.70;95790.66;5008178;28;20036;-31
2021/12/29 05:50:30;;;;;;;2.00;1.10;;;;;;;26.22;33.93;95787.16;5010586;28;20033;-31
2021/12/29 05:52:56;;;;;;;2.67;0.70;;;;;;;26.20;33.88;95787.28;5007727;28;20689;-32
2021/12/29 05:55:54;;;;;;;1.55;0.80;;;;;;;26.20;33.88;95787.28;5009047;28;20030;-26
2021/12/29 05:58:19;;;;;;;2.22;0.90;;;;;;;26.20;33.86;95810.09;5009722;28;20021;-30
2021/12/29 06:00:45;;;;;;;2.38;0.98;;;;;;;26.20;33.99;95802.22;5004831;28;20022;-31
2021/12/29 06:03:10;;;;;;;1.80;0.65;;;;;;;26.18;33.88;95807.56;5006828;28;21910;-27
2021/12/29 06:05:37;;;;;;;4.40;1.10;;;;;;;26.18;33.84;95810.19;5008153;28;20026;-28
2021/12/29 06:08:03;;;;;;;4.40;0.88;;;;;;;26.19;33.89;95816.25;5009508;28;20037;-30
2021/12/29 06:10:29;;;;;;;2.35;0.98;;;;;;;26.18;33.87;95794.44;5008826;28;20094;-32
2021/12/29 06:12:55;;;;;;;1.08;0.60;;;;;;;26.18;33.74;95798.84;5004734;28;20060;-27
2021/12/29 06:15:20;;;;;;;1.42;0.80;;;;;;;26.18;33.95;95809.34;5003327;28;20559;-31
2021/12/29 06:17:46;;;;;;;2.00;0.77;;;;;;;26.17;33.99;95808.53;5005068;28;20128;-28
2021/12/29 06:20:12;;;;;;;1.65;0.80;;;;;;;26.18;33.88;95804.09;4991107;28;20021;-30
2021/12/29 06:22:37;;;;;;;3.05;0.88;;;;;;;26.17;33.92;95807.66;5005964;28;20496;-28
2021/12/29 06:25:04;;;;;;;1.08;0.68;;;;;;;26.17;33.86;95811.13;5008926;28;20037;-29
2021/12/29 06:27:31;;;;;;;1.38;0.90;;;;;;;26.16;34.03;95812.06;5007540;28;20033;-27
2021/12/29 06:29:56;;;;;;;1.00;0.50;;;;;;;26.17;33.75;95818.16;5007121;28;20501;-31
2021/12/29 06:32:22;;;;;;;1.20;0.47;;;;;;;26.18;33.90;95825.09;4988033;28;20037;-29
2021/12/29 06:34:48;;;;;;;2.63;0.70;;;;;;;26.17;33.96;95820.78;5007039;28;20056;-24
2021/12/29 06:37:13;;;;;;;1.83;0.88;;;;;;;26.17;33.95;95836.56;5006793;28;20112;-34
2021/12/29 06:39:43;;;;;;;1.52;0.60;;;;;;;26.18;33.84;95838.22;5006615;28;20021;-32
2021/12/29 06:43:06;;;;;;;1.88;0.60;;;;;;;-148.56;100.00;61375.16;5006257;28;20515;-33
2021/12/29 06:46:30;;;;;;;2.72;0.85;;;;;;;-148.56;100.00;61375.16;4997266;28;20496;-32
2021/12/29 06:48:55;;;;;;;1.77;0.60;;;;;;;26.14;33.88;95839.38;5008027;28;20111;-32
2021/12/29 06:51:20;;;;;;;0.63;0.47;;;;;;;26.10;33.92;95839.59;5006638;28;20709;-28
2021/12/29 06:53:46;;;;;;;1.38;0.60;;;;;;;26.13;33.94;95837.72;5006845;28;20034;-29
2021/12/29 06:56:11;;;;;;;0.80;0.63;;;;;;;26.14;33.92;95850.75;5011153;28;20030;-26
2021/12/29 06:58:37;;;;;;;1.27;0.50;;;;;;;26.14;34.05;95844.63;5014215;28;21048;-31
2021/12/29 07:01:03;;;;;;;2.65;0.50;;;;;;;26.14;33.97;95853.38;5009223;28;20088;-26
2021/12/29 07:03:28;;;;;;;1.15;0.82;;;;;;;26.13;33.87;95851.69;5008427;28;20036;-26
2021/12/29 07:05:54;;;;;;;1.17;0.57;;;;;;;26.15;33.94;95859.44;5009039;28;20034;-28
2021/12/29 07:08:20;;;;;;;1.17;0.60;;;;;;;26.15;33.87;95862.06;5011432;28;20029;-29
2021/12/29 07:10:46;;;;;;;0.82;0.40;;;;;;;26.14;33.87;95871.75;5011326;28;20021;-30
2021/12/29 07:13:11;;;;;;;0.60;0.40;;;;;;;26.14;33.91;95878.75;5009113;28;20505;-27
2021/12/29 07:15:37;;;;;;;1.35;0.60;;;;;;;26.15;33.99;95877.81;4995052;28;20079;-31
2021/12/29 07:18:03;;;;;;;0.57;0.40;;;;;;;26.15;33.99;95883.06;5011504;28;20411;-30
2021/12/29 07:20:28;;;;;;;1.13;0.60;;;;;;;26.14;33.87;95882.25;5011697;28;20021;-32
2021/12/29 07:22:54;;;;;;;1.23;0.60;;;;;;;26.14;33.97;95884.03;5007111;28;20033;-27
2021/12/29 07:25:19;;;;;;;0.95;0.60;;;;;;;26.15;33.85;95883.06;5010039;28;20038;-27
2021/12/29 07:27:44;;;;;;;0.90;0.50;;;;;;;26.15;34.01;95881.28;5012464;28;20400;-32
2021/12/29 07:30:11;;;;;;;1.42;0.52;;;;;;;26.16;33.95;95884.78;5010644;28;20508;-31
2021/12/29 07:32:37;;;;;;;0.80;0.50;;;;;;;26.14;33.90;95877.00;5012784;28;20145;-29
2021/12/29 07:35:02;;;;;;;1.85;0.43;;;;;;;26.16;33.99;95890.03;5006910;28;20029;-29
2021/12/29 07:37:28;;;;;;;2.13;0.95;;;;;;;26.16;33.80;95890.03;5008600;28;20021;-31
2021/12/29 07:39:53;;;;;;;1.95;0.68;;;;;;;26.14;33.99;95900.63;5010157;28;20648;-33
2021/12/29 07:42:19;;;;;;;1.92;0.50;;;;;;;26.15;33.93;95898.81;5010435;28;20055;-29
2021/12/29 07:44:46;;;;;;;1.45;0.47;;;;;;;26.15;33.96;95920.69;5007347;28;20652;-31
2021/12/29 07:47:13;;;;;;;1.02;0.50;;;;;;;26.14;33.88;95924.25;5007459;28;20030;-32
2021/12/29 07:49:39;;;;;;;6.25;0.63;;;;;;;26.14;33.98;95928.66;5009903;28;20025;-29
2021/12/29 07:52:04;;;;;;;2.47;1.00;;;;;;;26.15;33.86;95940.84;5005676;28;20395;-31
2021/12/29 07:54:30;;;;;;;6.28;1.23;;;;;;;26.14;33.89;95933.91;5004392;28;20563;-29
2021/12/29 07:56:55;;;;;;;7.40;1.92;;;;;;;26.13;33.81;95933.09;5001593;28;20041;-30
2021/12/29 07:59:20;;;;;;;6.53;1.90;;;;;;;26.13;34.06;95945.38;4997621;28;20029;-34
2021/12/29 08:01:46;;;;;;;6.13;1.90;;;;;;;26.14;34.11;95949.66;5007014;28;20025;-30
2021/12/29 08:04:13;;;;;;;7.38;2.05;;;;;;;26.13;34.13;95956.72;5002028;28;20084;-32
2021/12/29 08:06:38;;;;;;;6.32;2.20;;;;;;;26.14;34.03;95965.41;4992716;28;20434;-29
2021/12/29 08:09:04;;;;;;;6.32;2.42;;;;;;;26.15;34.00;95961.84;5001446;28;20034;-31
2021/12/29 08:11:29;;;;;;;4.35;2.00;;;;;;;26.14;34.15;95957.53;5003011;28;20037;-26
2021/12/29 08:13:54;;;;;;;8.82;2.35;;;;;;;26.14;34.05;95960.16;5002910;28;20025;-30
2021/12/29 08:16:20;;;;;;;11.02;2.22;;;;;;;26.16;34.09;95963.53;5003094;28;20029;-34
2021/12/29 08:18:46;;;;;;;6.00;2.30;;;;;;;26.16;34.13;95968.78;5005610;28;20033;-33
2021/12/29 08:21:11;;;;;;;5.18;1.95;;;;;;;26.12;34.10;95967.31;5004781;28;20036;-27
2021/12/29 08:23:37;;;;;;;7.97;2.13;;;;;;;26.17;34.17;95980.97;5005827;28;20040;-29
2021/12/29 08:26:02;;;;;;;10.00;2.17;;;;;;;26.17;34.01;95975.72;5006434;28;20033;-31
2021/12/29 08:28:28;;;;;;;8.05;2.30;;;;;;;26.18;34.21;95977.41;4988907;28;20072;-30
2021/12/29 08:30:54;;;;;;;7.15;2.40;;;;;;;26.18;34.21;95966.91;5009928;28;20519;-29
2021/12/29 08:33:20;;;;;;;5.93;2.40;;;;;;;26.18;34.17;95966.91;5008616;28;20435;-31
2021/12/29 08:35:45;;;;;;;5.63;2.25;;;;;;;26.18;34.20;95966.91;5011424;28;20029;-32
2021/12/29 08:38:10;;;;;;;5.70;2.10;;;;;;;26.19;34.27;95958.06;5003967;28;20473;-28
2021/12/29 08:40:36;;;;;;;4.55;1.83;;;;;;;26.19;34.30;95960.69;5005007;28;20036;-36
2021/12/29 08:43:03;;;;;;;5.65;2.38;;;;;;;26.19;34.32;95955.44;5008691;28;20025;-31
2021/12/29 08:45:28;;;;;;;7.15;1.70;;;;;;;26.20;34.00;95954.50;5000844;28;20114;-35
2021/12/29 08:47:55;;;;;;;3.40;1.65;;;;;;;26.19;33.60;95965.94;4984982;28;20528;-29
2021/12/29 08:50:21;;;;;;;4.68;1.77;;;;;;;26.18;33.48;95969.53;5002359;28;20025;-27
2021/12/29 08:52:46;;;;;;;5.15;1.80;;;;;;;26.17;33.16;95966.06;5003154;28;20026;-27
2021/12/29 08:55:12;;;;;;;4.72;1.40;;;;;;;26.17;33.42;95954.72;5001486;28;20030;-30
2021/12/29 08:57:38;;;;;;;4.68;1.70;;;;;;;26.16;33.51;95959.13;5003905;28;20017;-27
2021/12/29 09:00:06;;;;;;;7.00;2.20;;;;;;;26.15;33.28;95967.94;5001437;28;20025;-32
2021/12/29 09:02:31;;;;;;;7.20;2.13;;;;;;;26.15;33.57;95974.97;5001931;28;20033;-28
2021/12/29 09:04:56;;;;;;;6.00;1.70;;;;;;;26.13;33.80;95969.00;5006795;28;20044;-28
2021/12/29 09:07:22;;;;;;;33.28;2.55;;;;;;;26.13;33.65;95963.75;5005981;28;20041;-32
2021/12/29 09:09:47;;;;;;;4.72;1.88;;;;;;;26.12;33.93;95967.31;5006885;28;20026;-32
2021/12/29 09:12:13;;;;;;;5.30;2.10;;;;;;;26.11;33.84;95961.22;5002734;28;20786;-28
2021/12/29 09:14:38;;;;;;;4.22;1.70;;;;;;;26.12;34.03;95972.56;4997152;28;20026;-29
2021/12/29 09:17:03;;;;;;;5.32;1.85;;;;;;;26.09;34.14;95984.13;5002775;28;20060;-29
2021/12/29 09:19:33;;;;;;;4.50;1.92;;;;;;;26.09;34.06;95992.81;5003693;28;20109;-28
2021/12/29 09:21:58;;;;;;;4.38;1.90;;;;;;;26.09;34.03;95986.75;5009288;28;20700;-26
2021/12/29 09:24:24;;;;;;;4.63;1.88;;;;;;;26.07;34.07;95973.72;5004669;28;20044;-29
2021/12/29 09:26:50;;;;;;;3.75;1.60;;;;;;;26.08;34.25;95972.78;5008247;28;20609;-27
2021/12/29 09:29:15;;;;;;;5.15;1.95;;;;;;;26.07;34.07;95971.09;5003105;28;20567;-32
2021/12/29 09:31:41;;;;;;;3.92;1.80;;;;;;;26.06;32.40;95973.81;4996304;28;20029;-30
2021/12/29 09:34:07;;;;;;;3.58;1.55;;;;;;;25.94;30.23;95986.00;5005236;28;20431;-30
2021/12/29 09:36:32;;;;;;;5.65;1.55;;;;;;;25.79;29.16;95982.59;4998561;28;20026;-27
2021/12/29 09:38:58;;;;;;;2.33;1.05;;;;;;;25.61;29.05;95988.09;5001757;28;20751;-28
2021/12/29 09:41:23;;;;;;;6.47;1.50;;;;;;;25.43;28.79;95987.47;4989527;28;20438;-27
2021/12/29 09:43:48;;;;;;;2.58;1.15;;;;;;;25.24;28.78;95988.66;5005379;28;20507;-28
2021/12/29 09:46:14;;;;;;;3.30;1.20;;;;;;;25.08;28.99;96003.66;5007524;28;20575;-33
2021/12/29 09:48:40;;;;;;;2.70;1.00;;;;;;;24.94;29.73;96008.00;4981229;28;20152;-26
2021/12/29 09:51:07;;;;;;;3.72;1.13;;;;;;;24.87;30.24;95999.66;5000340;28;20107;-31
2021/12/29 09:53:32;;;;;;;4.28;2.10;;;;;;;24.85;30.69;95998.06;4967653;28;20458;-29
2021/12/29 09:55:58;;;;;;;5.30;2.22;;;;;;;24.85;31.14;96005.94;5003372;28;20030;-30
2021/12/29 09:58:23;;;;;;;5.72;2.05;;;;;;;24.87;31.30;96010.16;5002619;28;20026;-26
2021/12/29 10:00:54;;;;;;;7.07;2.40;;;;;;;24.91;31.44;96008.19;5002232;28;20957;-29
2021/12/29 10:04:17;;;;;;;9.38;2.75;;;;;;;-148.56;100.00;61375.16;5000369;28;20029;-30
2021/12/29 10:06:45;;;;;;;6.95;2.63;;;;;;;24.91;31.44;96008.19;4998661;28;20035;-27
2021/12/29 10:10:18;;;;;;;5.80;2.40;;;;;;;-148.56;100.00;61375.16;4999781;28;20025;-31
2021/12/29 10:13:42;;;;;;;4.90;2.38;;;;;;;-148.56;100.00;61375.16;5000560;28;20905;-28
2021/12/29 10:16:45;;;;;;;5.78;2.60;;;;;;;24.91;31.44;96008.19;4998781;28;20037;-29
2021/12/29 10:20:11;;;;;;;13.52;2.78;;;;;;;-148.56;100.00;61375.16;5000281;28;20543;-29
2021/12/29 10:22:36;;;;;;;6.53;2.90;;;;;;;25.25;32.28;96000.81;5004075;28;20037;-28
2021/12/29 10:25:10;;;;;;;5.95;2.60;;;;;;;25.28;32.35;96000.63;5011099;28;20029;-30
2021/12/29 10:27:35;;;;;;;17.02;4.03;;;;;;;25.31;32.32;95995.19;5004247;28;20033;-30
2021/12/29 10:30:19;;;;;;;18.35;4.35;;;;;;;25.36;32.50;95992.28;5004645;28;21181;-29
2021/12/29 10:32:45;;;;;;;13.05;3.97;;;;;;;25.41;32.53;95989.38;4997470;28;20541;-27
2021/12/29 10:35:27;;;;;;;19.80;4.15;;;;;;;25.44;32.54;95978.69;5003292;28;20033;-27
2021/12/29 10:37:53;;;;;;;36.40;6.32;;;;;;;25.50;32.53;95972.19;4993653;28;20387;-31
2021/12/29 10:40:29;;;;;;;31.35;6.40;;;;;;;25.51;32.68;95964.22;5005377;28;20036;-31
2021/12/29 10:42:56;;;;;;;31.73;8.05;;;;;;;25.55;32.72;95968.31;5006515;28;20025;-28
2021/12/29 10:45:32;;;;;;;25.40;6.85;;;;;;;25.58;32.72;95967.31;5004814;28;20092;-30
2021/12/29 10:47:58;;;;;;;34.83;7.05;;;;;;;25.59;32.74;95962.91;5008009;28;20033;-28
2021/12/29 10:50:25;;;;;;;26.17;6.55;;;;;;;25.62;32.72;95971.41;5005727;28;20099;-27
2021/12/29 10:52:51;;;;;;;22.13;5.65;;;;;;;25.64;32.72;95985.28;5007122;28;20520;-28
2021/12/29 10:55:35;;;;;;;25.45;5.65;;;;;;;25.68;32.63;95983.28;5005545;28;20037;-25
2021/12/29 10:58:06;;;;;;;26.50;5.85;;;;;;;25.69;32.68;95988.44;5010056;28;20727;-30
2021/12/29 11:00:31;;;;;;;15.07;4.93;;;;;;;25.71;32.79;95988.34;5004286;28;20026;-30
2021/12/29 11:03:12;;;;;;;19.65;5.65;;;;;;;25.73;32.71;95986.47;5006696;28;20296;-30
2021/12/29 11:05:40;;;;;;;17.85;4.82;;;;;;;25.75;32.65;95992.47;5009732;28;20535;-26
2021/12/29 11:08:07;;;;;;;15.40;4.50;;;;;;;25.76;32.92;95993.28;5009317;28;20048;-31
2021/12/29 11:10:33;;;;;;;18.02;4.45;;;;;;;25.76;32.79;95991.50;4989932;28;20110;-26
2021/12/29 11:12:58;;;;;;;20.25;5.20;;;;;;;25.79;32.83;95980.81;5008039;28;20033;-31
2021/12/29 11:15:25;;;;;;;19.27;4.63;;;;;;;25.79;32.76;95979.97;5007515;28;20758;-26
2021/12/29 11:17:55;;;;;;;11.27;3.50;;;;;;;25.81;32.71;95976.28;5006660;28;20403;-30
2021/12/29 11:20:22;;;;;;;13.35;4.10;;;;;;;25.82;32.90;95977.97;5007609;28;20064;-28
2021/12/29 11:22:48;;;;;;;14.23;4.05;;;;;;;25.81;32.77;95976.28;5008447;28;20166;-28
2021/12/29 11:25:13;;;;;;;13.52;3.60;;;;;;;25.83;32.88;95971.78;5006625;28;20033;-29
2021/12/29 11:27:39;;;;;;;16.67;3.75;;;;;;;25.83;32.87;95974.41;5002255;28;20141;-29
2021/12/29 11:30:10;;;;;;;12.77;3.42;;;;;;;25.82;33.50;95967.47;4993508;28;20029;-33
2021/12/29 11:32:37;;;;;;;12.60;3.30;;;;;;;25.81;33.47;95971.03;5003902;28;20029;-31
2021/12/29 11:35:08;;;;;;;11.00;3.17;;;;;;;25.83;33.50;95969.16;5008155;28;20472;-29
2021/12/29 11:37:37;;;;;;;8.45;3.15;;;;;;;25.86;33.56;95972.53;5007889;28;20420;-31
2021/12/29 11:40:04;;;;;;;10.32;2.90;;;;;;;25.89;32.05;95973.16;4986878;28;20041;-31
2021/12/29 11:42:30;;;;;;;7.07;2.20;;;;;;;25.96;31.30;95963.09;4969014;28;20124;-33